createdAt,value
2019-03-20T00:01:43.593Z,72.20
2019-03-20T00:04:07.444Z,72.30
2019-03-20T00:06:36.511Z,72.30
2019-03-20T00:09:08.088Z,72.40
2019-03-20T00:11:37.128Z,72.50
2019-03-20T00:14:06.197Z,72.60
2019-03-20T00:16:35.170Z,72.70
2019-03-20T00:19:04.138Z,72.80
2019-03-20T00:21:33.246Z,72.90
2019-03-20T00:24:02.295Z,73.00
2019-03-20T00:26:31.351Z,73.10
2019-03-20T00:29:00.402Z,73.10
2019-03-20T00:31:29.385Z,73.30
2019-03-20T00:34:09.983Z,73.40
2019-03-20T00:36:39.030Z,73.60
2019-03-20T00:39:08.202Z,73.70
2019-03-20T00:41:37.234Z,74.00
2019-03-20T00:44:06.176Z,74.00
2019-03-20T00:46:35.134Z,74.20
2019-03-20T00:49:04.179Z,74.30
2019-03-20T00:51:33.257Z,74.30
2019-03-20T00:54:02.298Z,74.40
2019-03-20T00:56:31.265Z,74.70
2019-03-20T00:59:00.278Z,74.70
2019-03-20T01:01:29.361Z,74.90
2019-03-20T01:03:58.425Z,75.00
2019-03-20T01:06:27.457Z,75.00
2019-03-20T01:08:56.481Z,74.80
2019-03-20T01:11:25.503Z,76.00
2019-03-20T01:13:54.558Z,75.20
2019-03-20T01:16:23.594Z,75.30
2019-03-20T01:18:52.584Z,75.40
2019-03-20T01:21:21.599Z,75.50
2019-03-20T01:23:50.648Z,75.50
2019-03-20T01:26:19.761Z,75.70
2019-03-20T01:28:48.814Z,75.80
2019-03-20T01:31:17.765Z,75.90
2019-03-20T01:33:46.815Z,76.00
2019-03-20T01:36:15.900Z,76.10
2019-03-20T01:38:44.963Z,76.20
2019-03-20T01:41:14.105Z,76.30
2019-03-20T01:43:43.167Z,76.40
2019-03-20T01:46:12.186Z,76.50
2019-03-20T01:48:41.190Z,76.60
2019-03-20T01:51:18.766Z,76.70
2019-03-20T01:53:48.961Z,76.80
2019-03-20T01:56:17.995Z,76.80
2019-03-20T01:58:46.983Z,76.90
2019-03-20T02:01:16.071Z,76.90
2019-03-20T02:03:45.147Z,77.00
2019-03-20T02:06:14.285Z,77.00
2019-03-20T02:08:43.355Z,77.10
2019-03-20T02:11:12.332Z,77.10
2019-03-20T02:13:41.375Z,77.30
2019-03-20T02:16:10.424Z,77.40
2019-03-20T02:18:39.449Z,77.40
2019-03-20T02:21:08.553Z,77.50
2019-03-20T02:23:56.863Z,77.60
2019-03-20T02:26:26.000Z,77.70
2019-03-20T02:28:55.034Z,77.90
2019-03-20T02:31:24.078Z,77.90
2019-03-20T02:33:54.413Z,78.00
2019-03-20T02:36:23.428Z,78.10
2019-03-20T02:38:52.519Z,78.10
2019-03-20T02:41:21.570Z,78.20
2019-03-20T02:43:50.640Z,78.30
2019-03-20T02:46:19.659Z,78.30
2019-03-20T02:48:48.816Z,78.30
2019-03-20T02:51:17.847Z,78.50
2019-03-20T02:53:46.929Z,78.50
2019-03-20T02:56:15.911Z,78.60
2019-03-20T02:58:44.983Z,78.60
2019-03-20T03:01:14.022Z,78.70
2019-03-20T03:03:43.091Z,78.80
2019-03-20T03:06:12.115Z,78.90
2019-03-20T03:08:41.213Z,79.00
2019-03-20T03:11:10.250Z,79.10
2019-03-20T03:13:39.263Z,79.20
2019-03-20T03:16:08.353Z,79.30
2019-03-20T03:18:37.453Z,79.30
2019-03-20T03:21:06.559Z,79.40
2019-03-20T03:23:35.669Z,79.40
2019-03-20T03:26:04.696Z,79.60
2019-03-20T03:28:33.719Z,79.60
2019-03-20T03:31:02.826Z,79.80
2019-03-20T03:33:31.922Z,79.90
2019-03-20T03:36:01.086Z,79.90
2019-03-20T03:38:30.134Z,80.00
2019-03-20T03:40:59.200Z,80.00
2019-03-20T03:43:28.271Z,80.80
2019-03-20T03:45:57.417Z,80.10
2019-03-20T03:48:26.493Z,80.20
2019-03-20T03:50:55.545Z,80.20
2019-03-20T03:53:24.609Z,80.20
2019-03-20T03:55:53.666Z,80.40
2019-03-20T03:58:22.730Z,80.50
2019-03-20T04:00:51.743Z,80.50
2019-03-20T04:03:20.845Z,80.60
2019-03-20T04:05:49.913Z,80.70
2019-03-20T04:08:18.978Z,80.70
2019-03-20T04:10:48.044Z,80.80
2019-03-20T04:13:17.105Z,80.80
2019-03-20T04:15:47.516Z,80.80
2019-03-20T04:18:16.597Z,80.80
2019-03-20T04:20:45.679Z,80.90
2019-03-20T04:23:14.738Z,81.60
2019-03-20T04:25:43.816Z,80.90
2019-03-20T04:28:12.864Z,80.90
2019-03-20T04:30:41.903Z,81.00
2019-03-20T04:33:11.017Z,81.00
2019-03-20T04:35:40.038Z,81.00
2019-03-20T04:38:09.070Z,81.00
2019-03-20T04:40:38.143Z,81.00
2019-03-20T04:43:07.245Z,81.10
2019-03-20T04:45:36.268Z,81.10
2019-03-20T04:48:05.304Z,81.10
2019-03-20T04:50:34.311Z,81.20
2019-03-20T04:53:03.339Z,81.40
2019-03-20T04:55:32.531Z,81.60
2019-03-20T04:58:01.571Z,81.80
2019-03-20T05:00:30.643Z,82.00
2019-03-20T05:03:01.066Z,82.30
2019-03-20T05:05:30.250Z,82.50
2019-03-20T05:07:59.260Z,82.60
2019-03-20T05:10:28.291Z,82.90
2019-03-20T05:12:57.413Z,83.10
2019-03-20T05:15:26.477Z,83.20
2019-03-20T05:17:55.545Z,83.40
2019-03-20T05:20:24.663Z,83.50
2019-03-20T05:22:53.706Z,83.80
2019-03-20T05:25:22.745Z,83.80
2019-03-20T05:27:51.803Z,84.00
2019-03-20T05:30:20.842Z,84.00
2019-03-20T05:32:49.859Z,84.00
2019-03-20T05:35:18.941Z,84.10
2019-03-20T05:37:48.004Z,84.20
2019-03-20T05:40:17.125Z,84.30
2019-03-20T05:42:46.189Z,84.40
2019-03-20T05:45:15.297Z,84.40
2019-03-20T05:47:44.469Z,84.40
2019-03-20T05:50:13.729Z,84.50
2019-03-20T05:52:42.777Z,84.50
2019-03-20T05:55:11.942Z,84.60
2019-03-20T05:57:40.945Z,84.70
2019-03-20T06:00:11.402Z,84.70
2019-03-20T06:02:40.471Z,84.80
2019-03-20T06:05:09.633Z,84.80
2019-03-20T06:07:38.664Z,84.90
2019-03-20T06:10:09.408Z,84.90
2019-03-20T06:12:38.473Z,85.00
2019-03-20T06:15:08.107Z,85.00
2019-03-20T06:17:40.592Z,84.90
2019-03-20T06:20:09.707Z,85.00
2019-03-20T06:22:41.970Z,85.00
2019-03-20T06:25:14.459Z,85.00
2019-03-20T06:27:43.454Z,84.90
2019-03-20T06:30:14.234Z,84.90
2019-03-20T06:32:43.303Z,84.90
2019-03-20T06:35:13.082Z,84.90
2019-03-20T06:37:42.169Z,85.00
2019-03-20T06:40:11.265Z,85.10
2019-03-20T06:42:42.195Z,85.10
2019-03-20T06:45:12.010Z,85.20
2019-03-20T06:47:41.226Z,85.10
2019-03-20T06:50:12.666Z,85.20
2019-03-20T06:52:41.661Z,85.20
2019-03-20T06:55:29.892Z,85.20
2019-03-20T06:57:59.082Z,85.20
2019-03-20T07:01:07.906Z,85.30
2019-03-20T07:03:57.363Z,85.20
2019-03-20T07:06:36.525Z,85.20
2019-03-20T07:09:27.752Z,85.10
2019-03-20T07:11:56.842Z,85.20
2019-03-20T07:14:25.914Z,85.30
2019-03-20T07:16:55.073Z,85.30
2019-03-20T07:19:24.320Z,85.40
2019-03-20T07:21:53.380Z,85.50
2019-03-20T07:24:22.453Z,85.60
2019-03-20T07:26:51.478Z,85.70
2019-03-20T07:29:20.594Z,85.80
2019-03-20T07:31:49.748Z,85.80
2019-03-20T07:34:18.793Z,85.80
2019-03-20T07:36:47.899Z,85.90
2019-03-20T07:39:16.939Z,86.00
2019-03-20T07:41:45.943Z,86.00
2019-03-20T07:44:14.965Z,86.00
2019-03-20T07:46:44.025Z,86.00
2019-03-20T07:49:13.106Z,85.90
2019-03-20T07:51:42.122Z,85.80
2019-03-20T07:54:11.157Z,85.80
2019-03-20T07:56:40.197Z,85.70
2019-03-20T07:59:09.242Z,85.80
2019-03-20T08:01:38.282Z,85.80
2019-03-20T08:04:07.335Z,85.80
2019-03-20T08:06:36.388Z,85.80
2019-03-20T08:09:07.457Z,85.70
2019-03-20T08:11:36.522Z,85.90
2019-03-20T08:14:05.489Z,85.80
2019-03-20T08:16:34.483Z,85.80
2019-03-20T08:19:03.534Z,85.80
2019-03-20T08:21:32.615Z,85.70
2019-03-20T08:24:01.670Z,85.80
2019-03-20T08:26:30.723Z,85.70
2019-03-20T08:28:59.733Z,85.60
2019-03-20T08:31:28.829Z,85.60
2019-03-20T08:33:57.905Z,85.60
2019-03-20T08:36:26.958Z,85.50
2019-03-20T08:38:56.081Z,85.60
2019-03-20T08:41:25.119Z,85.50
2019-03-20T08:43:54.089Z,85.40
2019-03-20T08:46:23.159Z,85.70
2019-03-20T08:48:52.211Z,85.40
2019-03-20T08:51:21.183Z,85.30
2019-03-20T08:53:50.186Z,85.30
2019-03-20T08:56:19.207Z,85.10
2019-03-20T08:58:48.286Z,85.00
2019-03-20T09:01:27.915Z,84.90
2019-03-20T09:03:48.095Z,84.80
2019-03-20T09:06:17.162Z,84.60
2019-03-20T09:08:53.372Z,84.40
2019-03-20T09:11:41.613Z,84.30
2019-03-20T09:14:10.757Z,84.30
2019-03-20T09:16:39.731Z,84.20
2019-03-20T09:19:08.846Z,84.20
2019-03-20T09:21:37.901Z,84.10
2019-03-20T09:24:06.987Z,84.10
2019-03-20T09:26:36.041Z,83.90
2019-03-20T09:29:05.117Z,83.90
2019-03-20T09:31:34.161Z,83.80
2019-03-20T09:34:03.243Z,83.70
2019-03-20T09:36:42.701Z,83.70
2019-03-20T09:39:03.250Z,83.60
2019-03-20T09:41:32.338Z,83.50
2019-03-20T09:44:01.341Z,83.40
2019-03-20T09:46:30.378Z,83.50
2019-03-20T09:48:59.392Z,83.40
2019-03-20T09:51:28.461Z,83.40
2019-03-20T09:53:57.531Z,83.50
2019-03-20T09:56:26.582Z,83.40
2019-03-20T09:58:55.542Z,83.40
2019-03-20T10:01:24.547Z,83.50
2019-03-20T10:03:53.547Z,83.40
2019-03-20T10:06:22.637Z,83.30
2019-03-20T10:08:54.262Z,83.30
2019-03-20T10:11:22.481Z,83.20
2019-03-20T10:13:51.538Z,83.20
2019-03-20T10:16:20.635Z,83.10
2019-03-20T10:18:49.706Z,83.80
2019-03-20T10:21:18.758Z,83.10
2019-03-20T10:23:47.942Z,83.00
2019-03-20T10:26:17.021Z,82.90
2019-03-20T10:28:46.078Z,82.90
2019-03-20T10:31:15.092Z,83.00
2019-03-20T10:33:44.189Z,83.00
2019-03-20T10:36:13.330Z,83.10
2019-03-20T10:38:42.442Z,83.10
2019-03-20T10:41:11.454Z,83.00
2019-03-20T10:43:40.508Z,82.90
2019-03-20T10:46:09.529Z,82.90
2019-03-20T10:48:38.582Z,83.00
2019-03-20T10:51:07.651Z,82.90
2019-03-20T10:53:36.704Z,82.90
2019-03-20T10:56:05.757Z,82.80
2019-03-20T10:58:34.799Z,82.70
2019-03-20T11:01:03.957Z,82.70
2019-03-20T11:03:33.094Z,82.60
2019-03-20T11:06:02.154Z,82.50
2019-03-20T11:08:31.237Z,82.50
2019-03-20T11:11:00.333Z,82.50
2019-03-20T11:13:29.395Z,82.40
2019-03-20T11:15:58.384Z,82.50
2019-03-20T11:18:27.389Z,82.50
2019-03-20T11:20:56.371Z,82.40
2019-03-20T11:23:25.364Z,82.40
2019-03-20T11:25:54.296Z,82.30
2019-03-20T11:28:23.312Z,82.40
2019-03-20T11:30:52.366Z,82.30
2019-03-20T11:33:21.405Z,82.30
2019-03-20T11:35:50.474Z,82.30
2019-03-20T11:38:19.521Z,82.20
2019-03-20T11:40:48.569Z,82.20
2019-03-20T11:43:17.545Z,82.00
2019-03-20T11:45:46.596Z,82.00
2019-03-20T11:48:15.666Z,81.90
2019-03-20T11:50:44.685Z,81.80
2019-03-20T11:53:13.723Z,81.70
2019-03-20T11:55:42.717Z,81.60
2019-03-20T11:58:11.759Z,81.50
2019-03-20T12:00:40.708Z,81.40
2019-03-20T12:03:09.750Z,81.30
2019-03-20T12:05:38.749Z,81.10
2019-03-20T12:08:07.792Z,80.90
2019-03-20T12:10:36.954Z,80.60
2019-03-20T12:13:06.092Z,80.50
2019-03-20T12:15:35.234Z,80.20
2019-03-20T12:18:04.304Z,80.10
2019-03-20T12:20:33.345Z,79.80
2019-03-20T12:23:02.355Z,79.60
2019-03-20T12:25:31.346Z,79.50
2019-03-20T12:28:00.388Z,79.30
2019-03-20T12:30:29.528Z,79.10
2019-03-20T12:32:58.549Z,78.90
2019-03-20T12:35:28.458Z,78.80
2019-03-20T12:37:57.525Z,78.60
2019-03-20T12:40:27.837Z,78.30
2019-03-20T12:42:57.002Z,78.20
2019-03-20T12:45:30.624Z,78.00
2019-03-20T12:47:59.637Z,77.90
2019-03-20T12:50:28.754Z,77.60
2019-03-20T12:53:01.550Z,77.50
2019-03-20T12:55:31.189Z,77.30
2019-03-20T12:58:00.422Z,77.10
2019-03-20T13:00:29.490Z,76.80
2019-03-20T13:02:58.471Z,76.60
2019-03-20T13:05:27.487Z,76.40
2019-03-20T13:08:05.271Z,76.10
2019-03-20T13:10:27.358Z,76.10
2019-03-20T13:12:56.433Z,75.80
2019-03-20T13:15:25.490Z,75.60
2019-03-20T13:17:54.499Z,75.50
2019-03-20T13:20:23.593Z,75.10
2019-03-20T13:22:58.811Z,75.00
2019-03-20T13:25:27.825Z,74.80
2019-03-20T13:27:57.162Z,74.70
2019-03-20T13:30:28.713Z,74.50
2019-03-20T13:32:57.744Z,74.30
2019-03-20T13:35:26.793Z,74.20
2019-03-20T13:37:55.824Z,74.10
2019-03-20T13:40:24.870Z,73.90
2019-03-20T13:42:54.008Z,73.70
2019-03-20T13:45:23.119Z,73.60
2019-03-20T13:47:52.161Z,73.50
2019-03-20T13:50:21.245Z,73.40
2019-03-20T13:52:50.307Z,73.30
2019-03-20T13:55:19.389Z,73.10
2019-03-20T13:57:48.423Z,72.90
2019-03-20T14:00:21.266Z,72.70
2019-03-20T14:02:50.313Z,72.50
2019-03-20T14:05:19.354Z,72.30
2019-03-20T14:07:48.485Z,72.10
2019-03-20T14:10:24.976Z,71.80
2019-03-20T14:12:49.541Z,71.50
2019-03-20T14:15:18.686Z,71.30
2019-03-20T14:17:47.707Z,71.40
2019-03-20T14:20:18.854Z,71.10
2019-03-20T14:22:47.994Z,71.00
2019-03-20T14:25:17.077Z,70.80
2019-03-20T14:27:46.240Z,70.60
2019-03-20T14:30:17.691Z,70.50
2019-03-20T14:32:46.734Z,70.30
2019-03-20T14:35:15.960Z,70.10
2019-03-20T14:37:45.014Z,70.00
2019-03-20T14:40:14.564Z,69.90
2019-03-20T14:42:43.605Z,70.00
2019-03-20T14:45:13.705Z,70.60
2019-03-20T14:47:42.786Z,69.80
2019-03-20T14:50:16.514Z,69.60
2019-03-20T14:52:45.504Z,69.70
2019-03-20T14:55:15.898Z,69.80
2019-03-20T14:57:45.070Z,69.70
2019-03-20T15:00:19.129Z,69.80
2019-03-20T15:02:48.169Z,69.70
2019-03-20T15:05:18.407Z,69.70
2019-03-20T15:07:47.473Z,69.80
2019-03-20T15:10:17.697Z,70.00
2019-03-20T15:12:46.818Z,70.10
2019-03-20T15:15:36.849Z,70.10
2019-03-20T15:18:06.015Z,70.80
2019-03-20T15:20:35.082Z,70.10
2019-03-20T15:23:04.145Z,70.10
2019-03-20T15:25:33.218Z,70.20
2019-03-20T15:28:02.186Z,70.00
2019-03-20T15:30:31.244Z,70.00
2019-03-20T15:33:00.324Z,70.00
2019-03-20T15:35:29.462Z,70.00
2019-03-20T15:37:59.395Z,70.00
2019-03-20T15:40:28.510Z,70.10
2019-03-20T15:42:57.501Z,70.00
2019-03-20T15:45:26.524Z,70.10
2019-03-20T15:47:55.519Z,70.00
2019-03-20T15:50:24.545Z,70.10
2019-03-20T15:52:53.567Z,70.10
2019-03-20T15:55:25.147Z,70.10
2019-03-20T15:57:54.354Z,70.10
2019-03-20T16:00:23.415Z,70.90
2019-03-20T16:02:53.858Z,70.10
2019-03-20T16:05:24.200Z,70.10
2019-03-20T16:08:00.992Z,70.10
2019-03-20T16:10:32.817Z,70.00
2019-03-20T16:13:01.884Z,70.00
2019-03-20T16:15:32.685Z,70.00
2019-03-20T16:18:01.750Z,70.00
2019-03-20T16:20:30.818Z,70.00
2019-03-20T16:22:59.873Z,70.10
2019-03-20T16:25:28.890Z,70.10
2019-03-20T16:27:58.025Z,70.10
2019-03-20T16:30:27.192Z,70.20
2019-03-20T16:32:56.659Z,70.10
2019-03-20T16:35:25.857Z,70.20
2019-03-20T16:37:54.936Z,70.20
2019-03-20T16:40:24.592Z,70.30
2019-03-20T16:42:53.644Z,70.30
2019-03-20T16:45:24.642Z,70.40
2019-03-20T16:47:53.729Z,70.40
2019-03-20T16:50:22.792Z,70.40
2019-03-20T16:52:51.865Z,70.50
2019-03-20T16:55:21.007Z,70.60
2019-03-20T16:57:50.173Z,70.70
2019-03-20T17:00:23.576Z,71.00
2019-03-20T17:02:52.625Z,71.10
2019-03-20T17:05:21.734Z,71.30
2019-03-20T17:07:50.917Z,71.50
2019-03-20T17:10:25.261Z,71.60
2019-03-20T17:12:54.321Z,71.80
2019-03-20T17:15:24.414Z,72.00
2019-03-20T17:17:53.491Z,72.20
2019-03-20T17:20:23.338Z,72.30
2019-03-20T17:22:52.468Z,72.50
2019-03-20T17:25:21.523Z,72.80
2019-03-20T17:27:50.563Z,72.90
2019-03-20T17:30:24.781Z,73.50
2019-03-20T17:32:53.842Z,73.10
2019-03-20T17:35:22.873Z,73.40
2019-03-20T17:37:52.035Z,73.50
2019-03-20T17:40:21.227Z,73.50
2019-03-20T17:42:50.258Z,73.90
2019-03-20T17:45:19.421Z,74.00
2019-03-20T17:47:48.502Z,74.10
2019-03-20T17:50:25.062Z,74.30
2019-03-20T17:52:54.165Z,74.30
2019-03-20T17:55:23.302Z,74.40
2019-03-20T17:57:52.388Z,74.40
2019-03-20T18:00:34.092Z,74.50
2019-03-20T18:03:03.175Z,74.60
2019-03-20T18:05:32.332Z,74.60
2019-03-20T18:08:20.581Z,74.70
2019-03-20T18:10:49.644Z,74.80
2019-03-20T18:13:18.770Z,74.90
2019-03-20T18:15:47.866Z,75.00
2019-03-20T18:18:16.915Z,75.00
2019-03-20T18:20:45.984Z,75.10
2019-03-20T18:23:15.073Z,75.20
2019-03-20T18:25:44.165Z,75.30
2019-03-20T18:28:15.864Z,75.30
2019-03-20T18:30:44.852Z,75.40
2019-03-20T18:33:13.945Z,75.40
2019-03-20T18:35:43.021Z,75.50
2019-03-20T18:38:12.122Z,75.70
2019-03-20T18:40:41.271Z,75.80
2019-03-20T18:43:10.273Z,75.90
2019-03-20T18:45:39.324Z,75.80
2019-03-20T18:48:08.335Z,75.90
2019-03-20T18:50:37.564Z,75.90
2019-03-20T18:53:06.767Z,76.10
2019-03-20T18:55:35.926Z,76.20
2019-03-20T18:58:05.015Z,76.20
2019-03-20T19:00:34.116Z,76.40
2019-03-20T19:03:03.445Z,76.40
2019-03-20T19:05:48.230Z,76.50
2019-03-20T19:08:17.362Z,76.50
2019-03-20T19:10:46.529Z,76.70
2019-03-20T19:13:15.670Z,76.90
2019-03-20T19:15:45.901Z,77.00
2019-03-20T19:18:15.033Z,77.00
2019-03-20T19:20:44.075Z,77.10
2019-03-20T19:23:15.575Z,77.20
2019-03-20T19:25:44.542Z,77.20
2019-03-20T19:28:13.685Z,77.90
2019-03-20T19:30:42.772Z,77.20
2019-03-20T19:33:12.404Z,77.30
2019-03-20T19:35:41.420Z,77.30
2019-03-20T19:38:10.478Z,77.30
2019-03-20T19:40:39.533Z,77.40
2019-03-20T19:43:08.633Z,77.40
2019-03-20T19:45:37.714Z,77.50
2019-03-20T19:48:06.791Z,77.60
2019-03-20T19:50:36.250Z,77.60
2019-03-20T19:53:05.268Z,77.60
2019-03-20T19:55:34.295Z,77.60
2019-03-20T19:58:03.313Z,77.60
2019-03-20T20:00:32.335Z,77.70
2019-03-20T20:03:01.426Z,77.80
2019-03-20T20:05:30.474Z,77.80
2019-03-20T20:07:59.485Z,77.90
2019-03-20T20:10:28.503Z,77.90
2019-03-20T20:12:57.560Z,78.00
2019-03-20T20:15:26.771Z,78.00
2019-03-20T20:17:55.814Z,78.00
2019-03-20T20:20:24.871Z,78.10
2019-03-20T20:22:54.034Z,78.20
2019-03-20T20:25:23.229Z,78.20
2019-03-20T20:27:52.298Z,78.40
2019-03-20T20:30:21.394Z,78.30
2019-03-20T20:32:50.610Z,78.40
2019-03-20T20:35:19.833Z,78.40
2019-03-20T20:37:48.990Z,78.50
2019-03-20T20:40:18.366Z,78.60
2019-03-20T20:42:47.461Z,78.50
2019-03-20T20:45:16.489Z,78.50
2019-03-20T20:47:45.483Z,78.60
2019-03-20T20:50:14.546Z,78.60
2019-03-20T20:52:43.573Z,78.70
2019-03-20T20:55:13.025Z,78.70
2019-03-20T20:57:42.102Z,78.80
2019-03-20T21:00:16.993Z,78.90
2019-03-20T21:02:46.025Z,79.00
2019-03-20T21:05:16.411Z,78.90
2019-03-20T21:07:45.459Z,79.00
2019-03-20T21:10:15.021Z,79.10
2019-03-20T21:12:55.121Z,79.10
2019-03-20T21:15:35.144Z,79.20
2019-03-20T21:18:59.242Z,79.30
2019-03-20T21:21:59.866Z,79.30
2019-03-20T21:24:28.596Z,80.10
2019-03-20T21:27:41.514Z,79.30
2019-03-20T21:30:47.706Z,79.40
2019-03-20T21:33:45.597Z,79.40
2019-03-20T21:37:04.733Z,79.40
2019-03-20T21:39:34.354Z,79.50
2019-03-20T21:43:06.586Z,79.60
2019-03-20T21:46:01.094Z,79.60
2019-03-20T21:48:30.703Z,79.70
2019-03-20T21:51:18.020Z,79.70
2019-03-20T21:54:34.533Z,79.80
2019-03-20T21:57:52.135Z,80.00
2019-03-20T22:00:58.558Z,80.00
2019-03-20T22:03:28.202Z,80.00
2019-03-20T22:06:34.513Z,80.10
2019-03-20T22:09:20.843Z,80.20
2019-03-20T22:12:14.009Z,80.30
2019-03-20T22:14:45.342Z,80.30
2019-03-20T22:18:16.787Z,80.30
2019-03-20T22:20:56.335Z,80.50
2019-03-20T22:24:02.546Z,80.50
2019-03-20T22:27:11.035Z,80.60
2019-03-20T22:29:40.618Z,80.60
2019-03-20T22:32:39.110Z,80.70
2019-03-20T22:35:41.133Z,80.80
2019-03-20T22:38:34.159Z,80.90
2019-03-20T22:41:38.000Z,80.90
2019-03-20T22:44:07.847Z,81.00
2019-03-20T22:47:29.143Z,81.00
2019-03-20T22:50:31.631Z,81.00
2019-03-20T22:53:50.160Z,81.10
2019-03-20T22:56:28.470Z,81.90
2019-03-20T22:58:58.093Z,81.10
2019-03-20T23:01:44.246Z,81.20
2019-03-20T23:04:20.697Z,81.30
2019-03-20T23:06:50.294Z,81.40
2019-03-20T23:09:19.811Z,81.50
2019-03-20T23:11:50.793Z,81.50
2019-03-20T23:14:20.469Z,81.60
2019-03-20T23:16:50.058Z,81.70
2019-03-20T23:19:19.699Z,81.70
2019-03-20T23:21:49.281Z,81.80
2019-03-20T23:24:18.799Z,81.70
2019-03-20T23:26:48.422Z,81.90
2019-03-20T23:29:18.050Z,81.80
2019-03-20T23:31:47.638Z,81.90
2019-03-20T23:34:17.266Z,82.00
2019-03-20T23:36:46.914Z,82.00
2019-03-20T23:39:16.538Z,82.00
2019-03-20T23:41:46.148Z,82.10
2019-03-20T23:44:15.777Z,82.20
2019-03-20T23:46:45.382Z,82.30
2019-03-20T23:49:18.548Z,82.20
2019-03-20T23:51:48.172Z,82.30
2019-03-20T23:54:20.874Z,82.40
2019-03-20T23:56:51.591Z,82.30
2019-03-20T23:59:21.201Z,82.30
